createdAt,value
2018-10-21T00:00:58.465Z,98899.02
2018-10-21T00:03:28.740Z,98896.87
2018-10-21T00:05:59.240Z,98900.31
2018-10-21T00:08:30.138Z,98891.44
2018-10-21T00:11:00.630Z,98895.16
2018-10-21T00:13:31.210Z,98892.67
2018-10-21T00:16:02.275Z,98902.58
2018-10-21T00:18:32.829Z,98898.52
2018-10-21T00:21:03.699Z,98892.03
2018-10-21T00:23:34.179Z,98880.67
2018-10-21T00:26:04.800Z,98897.13
2018-10-21T00:28:34.962Z,98894.66
2018-10-21T00:31:05.641Z,98891.39
2018-10-21T00:33:36.332Z,98896.77
2018-10-21T00:36:07.192Z,98896.98
2018-10-21T00:38:37.453Z,98900.15
2018-10-21T00:41:08.134Z,98893.38
2018-10-21T00:43:38.774Z,98900.37
2018-10-21T00:46:09.350Z,98899.78
2018-10-21T00:48:39.638Z,98890.34
2018-10-21T00:51:08.137Z,98876.30
2018-10-21T00:53:38.656Z,98876.08
2018-10-21T00:56:09.379Z,98873.33
2018-10-21T00:58:39.933Z,98880.58
2018-10-21T01:01:10.634Z,98885.07
2018-10-21T01:03:42.744Z,98885.57
2018-10-21T01:06:12.800Z,98883.84
2018-10-21T01:08:43.983Z,98875.52
2018-10-21T01:11:14.508Z,98873.08
2018-10-21T01:13:45.557Z,98871.77
2018-10-21T01:16:17.437Z,98876.54
2018-10-21T01:18:48.443Z,98871.92
2018-10-21T01:21:20.552Z,98871.88
2018-10-21T01:23:51.241Z,98862.52
2018-10-21T01:26:22.026Z,98880.78
2018-10-21T01:28:51.050Z,98880.19
2018-10-21T01:31:20.319Z,98877.78
2018-10-21T01:33:55.633Z,98880.19
2018-10-21T01:36:27.155Z,98868.91
2018-10-21T01:38:57.898Z,98873.93
2018-10-21T01:41:32.975Z,98862.63
2018-10-21T01:44:04.080Z,98858.30
2018-10-21T01:46:34.454Z,98857.69
2018-10-21T01:49:04.571Z,98848.52
2018-10-21T01:51:34.865Z,98838.20
2018-10-21T01:54:06.013Z,98849.70
2018-10-21T01:56:36.628Z,98852.59
2018-10-21T01:59:08.269Z,98847.76
2018-10-21T02:01:38.121Z,98846.09
2018-10-21T02:04:09.257Z,98845.48
2018-10-21T02:06:38.209Z,98841.71
2018-10-21T02:09:09.242Z,98843.22
2018-10-21T02:11:39.540Z,98839.28
2018-10-21T02:14:09.654Z,98848.16
2018-10-21T02:16:38.926Z,98845.55
2018-10-21T02:19:08.623Z,98846.53
2018-10-21T02:21:39.552Z,98842.89
2018-10-21T02:24:08.918Z,98842.28
2018-10-21T02:26:39.621Z,98836.51
2018-10-21T02:29:11.031Z,98834.88
2018-10-21T02:31:42.489Z,98836.27
2018-10-21T02:34:11.916Z,98839.71
2018-10-21T02:36:41.958Z,98835.97
2018-10-21T02:39:10.614Z,98837.32
2018-10-21T02:41:55.011Z,98838.09
2018-10-21T02:44:26.192Z,98836.20
2018-10-21T02:46:57.856Z,98832.48
2018-10-21T02:49:28.249Z,98838.60
2018-10-21T02:52:03.226Z,98839.37
2018-10-21T02:54:33.471Z,98837.78
2018-10-21T02:57:05.055Z,98823.62
2018-10-21T02:59:35.738Z,98818.29
2018-10-21T03:02:06.832Z,98825.86
2018-10-21T03:04:37.306Z,98828.08
2018-10-21T03:07:05.775Z,98834.27
2018-10-21T03:09:37.074Z,98832.69
2018-10-21T03:12:06.915Z,98834.08
2018-10-21T03:14:35.855Z,98840.93
2018-10-21T03:17:07.546Z,98846.52
2018-10-21T03:19:37.203Z,98846.28
2018-10-21T03:22:08.110Z,98843.63
2018-10-21T03:24:37.933Z,98842.55
2018-10-21T03:27:09.295Z,98841.87
2018-10-21T03:29:39.797Z,98850.42
2018-10-21T03:32:10.415Z,98854.25
2018-10-21T03:34:41.550Z,98858.91
2018-10-21T03:37:11.644Z,98863.84
2018-10-21T03:39:40.550Z,98869.72
2018-10-21T03:42:10.656Z,98864.38
2018-10-21T03:44:41.799Z,98866.95
2018-10-21T03:47:12.310Z,98865.31
2018-10-21T03:49:42.804Z,98857.06
2018-10-21T03:52:15.391Z,98860.25
2018-10-21T03:54:48.481Z,98864.61
2018-10-21T03:57:18.773Z,98859.55
2018-10-21T03:59:49.911Z,98865.53
2018-10-21T04:02:21.617Z,98870.66
2018-10-21T04:04:52.587Z,98876.98
2018-10-21T04:07:21.812Z,98882.41
2018-10-21T04:09:51.950Z,98878.80
2018-10-21T04:12:20.827Z,98873.27
2018-10-21T04:14:50.144Z,98871.48
2018-10-21T04:17:20.703Z,98875.94
2018-10-21T04:19:51.216Z,98875.83
2018-10-21T04:22:21.551Z,98867.23
2018-10-21T04:24:53.149Z,98865.08
2018-10-21T04:27:23.425Z,98866.59
2018-10-21T04:29:55.045Z,98857.73
2018-10-21T04:32:25.588Z,98852.92
2018-10-21T04:34:56.484Z,98853.20
2018-10-21T04:37:38.069Z,98864.38
2018-10-21T04:40:16.989Z,98870.30
2018-10-21T04:42:48.071Z,98862.64
2018-10-21T04:45:21.095Z,98868.80
2018-10-21T04:47:51.729Z,98865.44
2018-10-21T04:50:24.176Z,98863.58
2018-10-21T04:52:53.952Z,98864.63
2018-10-21T04:55:24.677Z,98866.98
2018-10-21T04:57:54.492Z,98872.56
2018-10-21T05:00:24.852Z,98873.61
2018-10-21T05:02:56.089Z,98868.78
2018-10-21T05:05:27.018Z,98870.26
2018-10-21T05:07:58.229Z,98870.02
2018-10-21T05:10:35.072Z,98870.61
2018-10-21T05:13:05.568Z,98870.08
2018-10-21T05:15:36.886Z,98862.59
2018-10-21T05:18:06.526Z,98861.12
2018-10-21T05:20:35.761Z,98854.83
2018-10-21T05:23:07.589Z,98849.09
2018-10-21T05:25:37.246Z,98853.91
2018-10-21T05:28:06.758Z,98844.50
2018-10-21T05:30:35.649Z,98845.26
2018-10-21T05:33:04.312Z,98838.67
2018-10-21T05:35:35.294Z,98835.42
2018-10-21T05:38:07.064Z,98842.77
2018-10-21T05:40:37.801Z,98836.30
2018-10-21T05:43:08.030Z,98829.97
2018-10-21T05:45:38.143Z,98829.45
2018-10-21T05:48:08.625Z,98832.98
2018-10-21T05:50:39.358Z,98831.00
2018-10-21T05:53:09.220Z,98840.95
2018-10-21T05:55:38.272Z,98847.36
2018-10-21T05:58:09.121Z,98840.95
2018-10-21T06:00:40.138Z,98847.52
2018-10-21T06:03:10.103Z,98850.19
2018-10-21T06:05:45.406Z,98850.59
2018-10-21T06:08:14.332Z,98850.02
2018-10-21T06:10:46.979Z,98848.91
2018-10-21T06:13:17.398Z,98848.98
2018-10-21T06:15:46.593Z,98852.34
2018-10-21T06:18:22.196Z,98851.19
2018-10-21T06:20:55.695Z,98852.52
2018-10-21T06:23:26.632Z,98859.41
2018-10-21T06:25:56.347Z,98858.72
2018-10-21T06:28:26.784Z,98869.31
2018-10-21T06:30:57.619Z,98877.11
2018-10-21T06:33:28.124Z,98880.19
2018-10-21T06:35:57.258Z,98880.33
2018-10-21T06:38:26.202Z,98880.20
2018-10-21T06:40:56.172Z,98886.66
2018-10-21T06:43:27.432Z,98883.22
2018-10-21T06:45:57.746Z,98892.45
2018-10-21T06:48:28.626Z,98895.14
2018-10-21T06:50:58.821Z,98899.25
2018-10-21T06:53:29.231Z,98901.20
2018-10-21T06:55:59.536Z,98901.31
2018-10-21T06:58:30.517Z,98900.48
2018-10-21T07:01:01.139Z,98900.58
2018-10-21T07:03:31.608Z,98898.00
2018-10-21T07:06:19.692Z,98895.84
2018-10-21T07:08:54.504Z,98895.03
2018-10-21T07:11:24.081Z,98883.19
2018-10-21T07:13:54.771Z,98884.76
2018-10-21T07:16:25.956Z,98880.98
2018-10-21T07:18:55.605Z,98889.78
2018-10-21T07:21:25.082Z,98894.80
2018-10-21T07:23:55.312Z,98896.81
2018-10-21T07:26:25.778Z,98893.41
2018-10-21T07:28:56.159Z,98905.27
2018-10-21T07:31:29.872Z,98907.47
2018-10-21T07:33:59.127Z,98901.63
2018-10-21T07:36:28.924Z,98904.91
2018-10-21T07:38:59.389Z,98910.92
2018-10-21T07:41:29.207Z,98911.59
2018-10-21T07:43:59.622Z,98907.16
2018-10-21T07:46:29.224Z,98910.80
2018-10-21T07:49:01.003Z,98905.20
2018-10-21T07:51:31.931Z,98904.86
2018-10-21T07:54:02.987Z,98907.65
2018-10-21T07:56:35.425Z,98905.03
2018-10-21T07:59:06.113Z,98902.10
2018-10-21T08:01:35.502Z,98902.20
2018-10-21T08:04:04.839Z,98904.20
2018-10-21T08:06:45.056Z,98895.28
2018-10-21T08:09:14.624Z,98894.77
2018-10-21T08:11:46.844Z,98899.56
2018-10-21T08:14:17.146Z,98902.17
2018-10-21T08:16:48.208Z,98893.27
2018-10-21T08:19:18.080Z,98891.44
2018-10-21T08:21:47.315Z,98900.98
2018-10-21T08:24:16.377Z,98893.27
2018-10-21T08:26:45.734Z,98890.61
2018-10-21T08:29:17.233Z,98899.19
2018-10-21T08:31:48.645Z,98905.20
2018-10-21T08:34:21.210Z,98910.68
2018-10-21T08:36:52.065Z,98910.06
2018-10-21T08:39:23.471Z,98909.97
2018-10-21T08:41:54.787Z,98911.56
2018-10-21T08:44:24.129Z,98901.39
2018-10-21T08:46:53.352Z,98903.27
2018-10-21T08:49:22.930Z,98902.84
2018-10-21T08:51:54.282Z,98898.38
2018-10-21T08:54:26.662Z,98904.23
2018-10-21T08:56:58.640Z,98898.92
2018-10-21T08:59:28.432Z,98889.52
2018-10-21T09:01:58.824Z,98887.66
2018-10-21T09:04:28.242Z,98889.55
2018-10-21T09:06:57.933Z,98897.63
2018-10-21T09:09:28.356Z,98896.45
2018-10-21T09:12:03.875Z,98892.03
2018-10-21T09:14:35.137Z,98890.59
2018-10-21T09:17:06.340Z,98889.71
2018-10-21T09:19:37.873Z,98894.08
2018-10-21T09:22:09.389Z,98887.34
2018-10-21T09:24:39.282Z,98885.72
2018-10-21T09:27:08.787Z,98887.61
2018-10-21T09:29:37.980Z,98880.55
2018-10-21T09:32:08.245Z,98881.56
2018-10-21T09:34:38.494Z,98881.77
2018-10-21T09:37:09.699Z,98886.41
2018-10-21T09:39:40.485Z,98878.80
2018-10-21T09:42:10.807Z,98871.94
2018-10-21T09:44:40.050Z,98873.02
2018-10-21T09:47:10.081Z,98864.23
2018-10-21T09:49:39.660Z,98865.66
2018-10-21T09:52:12.011Z,98863.50
2018-10-21T09:54:44.520Z,98859.74
2018-10-21T09:57:14.929Z,98853.91
2018-10-21T09:59:45.481Z,98846.66
2018-10-21T10:02:21.487Z,98842.32
2018-10-21T10:04:53.886Z,98832.27
2018-10-21T10:07:24.384Z,98837.09
2018-10-21T10:09:55.804Z,98835.96
2018-10-21T10:12:25.145Z,98836.17
2018-10-21T10:14:54.736Z,98837.83
2018-10-21T10:17:26.942Z,98827.34
2018-10-21T10:19:56.504Z,98822.02
2018-10-21T10:22:27.073Z,98818.08
2018-10-21T10:24:58.711Z,98811.12
2018-10-21T10:27:29.857Z,98810.45
2018-10-21T10:29:59.577Z,98801.64
2018-10-21T10:32:30.054Z,98794.05
2018-10-21T10:34:58.843Z,98790.68
2018-10-21T10:37:29.391Z,98794.25
2018-10-21T10:39:59.582Z,98789.48
2018-10-21T10:42:29.123Z,98784.80
2018-10-21T10:44:59.046Z,98784.03
2018-10-21T10:47:31.212Z,98780.03
2018-10-21T10:50:01.563Z,98780.70
2018-10-21T10:52:32.674Z,98777.05
2018-10-21T10:55:03.108Z,98778.93
2018-10-21T10:57:33.479Z,98773.06
2018-10-21T11:00:04.196Z,98771.97
2018-10-21T11:02:34.841Z,98771.95
2018-10-21T11:05:04.857Z,98772.08
2018-10-21T11:07:33.365Z,98763.27
2018-10-21T11:10:03.946Z,98763.76
2018-10-21T11:12:33.250Z,98762.47
2018-10-21T11:15:03.261Z,98754.95
2018-10-21T11:17:33.029Z,98746.85
2018-10-21T11:20:03.555Z,98750.24
2018-10-21T11:22:33.975Z,98755.33
2018-10-21T11:25:04.837Z,98746.22
2018-10-21T11:27:34.171Z,98740.61
2018-10-21T11:30:04.852Z,98743.83
2018-10-21T11:32:35.200Z,98742.66
2018-10-21T11:35:06.236Z,98730.47
2018-10-21T11:37:36.307Z,98732.25
2018-10-21T11:40:07.337Z,98726.19
2018-10-21T11:42:38.110Z,98727.36
2018-10-21T11:45:08.222Z,98722.42
2018-10-21T11:47:38.581Z,98720.44
2018-10-21T11:50:10.677Z,98717.42
2018-10-21T11:52:41.258Z,98717.78
2018-10-21T11:55:11.821Z,98719.55
2018-10-21T11:57:40.744Z,98710.95
2018-10-21T12:00:11.280Z,98711.32
2018-10-21T12:02:41.492Z,98705.30
2018-10-21T12:05:11.294Z,98701.50
2018-10-21T12:07:42.193Z,98705.02
2018-10-21T12:10:12.303Z,98701.94
2018-10-21T12:12:41.757Z,98700.83
2018-10-21T12:15:15.664Z,98698.34
2018-10-21T12:17:47.045Z,98688.95
2018-10-21T12:20:17.475Z,98695.14
2018-10-21T12:22:47.020Z,98690.39
2018-10-21T12:25:17.864Z,98686.72
2018-10-21T12:27:48.192Z,98688.06
2018-10-21T12:30:19.601Z,98680.17
2018-10-21T12:32:50.484Z,98680.66
2018-10-21T12:35:22.137Z,98669.88
2018-10-21T12:37:58.264Z,98676.87
2018-10-21T12:40:29.339Z,98670.68
2018-10-21T12:42:59.873Z,98678.54
2018-10-21T12:45:31.128Z,98675.25
2018-10-21T12:48:01.816Z,98672.30
2018-10-21T12:50:32.064Z,98669.80
2018-10-21T12:53:03.290Z,98667.67
2018-10-21T12:55:34.369Z,98661.06
2018-10-21T12:58:06.051Z,98656.66
2018-10-21T13:00:34.626Z,98662.55
2018-10-21T13:03:04.571Z,98659.61
2018-10-21T13:05:34.934Z,98649.27
2018-10-21T13:08:05.807Z,98649.64
2018-10-21T13:10:35.901Z,98650.85
2018-10-21T13:13:06.813Z,98645.85
2018-10-21T13:15:37.117Z,98653.30
2018-10-21T13:18:08.087Z,98650.31
2018-10-21T13:20:38.952Z,98649.11
2018-10-21T13:23:10.031Z,98644.91
2018-10-21T13:25:39.708Z,98643.06
2018-10-21T13:28:09.817Z,98640.66
2018-10-21T13:30:40.353Z,98638.05
2018-10-21T13:33:11.262Z,98630.22
2018-10-21T13:35:41.711Z,98635.02
2018-10-21T13:38:12.491Z,98632.83
2018-10-21T13:40:43.131Z,98627.75
2018-10-21T13:43:15.406Z,98622.61
2018-10-21T13:45:45.325Z,98629.73
2018-10-21T13:48:20.648Z,98619.97
2018-10-21T13:50:50.913Z,98618.48
2018-10-21T13:53:20.175Z,98619.13
2018-10-21T13:55:51.974Z,98621.70
2018-10-21T13:58:23.028Z,98626.13
2018-10-21T14:00:52.437Z,98628.14
2018-10-21T14:03:24.896Z,98625.62
2018-10-21T14:05:56.048Z,98625.29
2018-10-21T14:08:31.369Z,98629.52
2018-10-21T14:11:00.704Z,98626.01
2018-10-21T14:13:33.156Z,98627.80
2018-10-21T14:16:03.367Z,98620.00
2018-10-21T14:18:35.548Z,98622.25
2018-10-21T14:21:06.750Z,98613.55
2018-10-21T14:23:36.595Z,98616.19
2018-10-21T14:26:06.070Z,98619.36
2018-10-21T14:28:36.642Z,98614.94
2018-10-21T14:31:07.308Z,98577.61
2018-10-21T14:33:37.374Z,98612.30
2018-10-21T14:36:07.248Z,98616.52
2018-10-21T14:38:38.289Z,98608.55
2018-10-21T14:41:09.194Z,98610.38
2018-10-21T14:43:40.516Z,98604.98
2018-10-21T14:46:12.793Z,98606.83
2018-10-21T14:48:42.835Z,98608.56
2018-10-21T14:51:12.783Z,98611.58
2018-10-21T14:53:43.292Z,98609.21
2018-10-21T14:56:13.837Z,98607.89
2018-10-21T14:58:44.123Z,98606.28
2018-10-21T15:01:13.758Z,98608.38
2018-10-21T15:03:44.173Z,98604.69
2018-10-21T15:06:13.745Z,98613.31
2018-10-21T15:08:44.158Z,98603.12
2018-10-21T15:11:13.733Z,98595.49
2018-10-21T15:13:44.384Z,98601.81
2018-10-21T15:16:15.557Z,98607.00
2018-10-21T15:18:45.642Z,98600.05
2018-10-21T15:21:21.522Z,98598.33
2018-10-21T15:23:51.632Z,98601.13
2018-10-21T15:26:22.362Z,98594.77
2018-10-21T15:28:52.681Z,98596.23
2018-10-21T15:31:23.388Z,98589.23
2018-10-21T15:33:54.429Z,98596.36
2018-10-21T15:36:24.042Z,98579.98
2018-10-21T15:38:54.229Z,98589.97
2018-10-21T15:41:24.888Z,98587.89
2018-10-21T15:43:54.730Z,98596.52
2018-10-21T15:46:24.921Z,98593.92
2018-10-21T15:48:55.735Z,98593.13
2018-10-21T15:51:26.359Z,98588.48
2018-10-21T15:53:55.613Z,98594.69
2018-10-21T15:56:26.196Z,98597.16
2018-10-21T15:58:56.289Z,98591.61
2018-10-21T16:01:25.631Z,98590.25
2018-10-21T16:03:54.926Z,98587.30
2018-10-21T16:06:25.440Z,98592.53
2018-10-21T16:08:56.865Z,98597.89
2018-10-21T16:11:28.036Z,98595.47
2018-10-21T16:13:59.609Z,98597.65
2018-10-21T16:16:30.652Z,98607.91
2018-10-21T16:19:01.086Z,98604.57
2018-10-21T16:21:34.826Z,98605.22
2018-10-21T16:24:05.505Z,98606.33
2018-10-21T16:26:37.739Z,98608.55
2018-10-21T16:29:06.536Z,98607.61
2018-10-21T16:31:37.592Z,98603.87
2018-10-21T16:34:09.175Z,98603.12
2018-10-21T16:36:45.263Z,98600.20
2018-10-21T16:39:20.243Z,98604.77
2018-10-21T16:41:50.644Z,98611.07
2018-10-21T16:44:21.645Z,98604.08
2018-10-21T16:46:52.155Z,98607.22
2018-10-21T16:49:22.626Z,98608.24
2018-10-21T16:51:53.163Z,98615.27
2018-10-21T16:54:24.032Z,98615.09
2018-10-21T16:56:55.391Z,98577.39
2018-10-21T16:59:25.729Z,98619.75
2018-10-21T17:01:55.985Z,98621.24
2018-10-21T17:04:26.663Z,98619.92
2018-10-21T17:06:57.069Z,98621.35
2018-10-21T17:09:32.059Z,98622.92
2018-10-21T17:12:02.042Z,98631.40
2018-10-21T17:14:32.409Z,98627.44
2018-10-21T17:17:02.486Z,98631.76
2018-10-21T17:19:32.626Z,98638.30
2018-10-21T17:22:01.297Z,98634.56
2018-10-21T17:24:32.220Z,98630.41
2018-10-21T17:27:03.009Z,98631.30
2018-10-21T17:29:33.620Z,98635.74
2018-10-21T17:32:02.886Z,98627.97
2018-10-21T17:34:33.404Z,98632.87
2018-10-21T17:37:03.915Z,98626.70
2018-10-21T17:39:34.257Z,98631.40
2018-10-21T17:42:04.845Z,98632.05
2018-10-21T17:44:35.351Z,98634.81
2018-10-21T17:47:05.797Z,98632.34
2018-10-21T17:49:36.353Z,98639.76
2018-10-21T17:52:06.739Z,98637.65
2018-10-21T17:54:37.165Z,98635.91
2018-10-21T17:57:07.678Z,98639.80
2018-10-21T17:59:38.695Z,98633.12
2018-10-21T18:02:09.279Z,98633.73
2018-10-21T18:04:40.957Z,98645.11
2018-10-21T18:07:11.632Z,98645.72
2018-10-21T18:09:41.668Z,98644.16
2018-10-21T18:12:12.010Z,98650.41
2018-10-21T18:14:42.324Z,98651.55
2018-10-21T18:17:12.151Z,98652.16
2018-10-21T18:19:41.358Z,98607.61
2018-10-21T18:22:12.750Z,98647.11
2018-10-21T18:24:42.960Z,98650.44
2018-10-21T18:27:13.213Z,98649.94
2018-10-21T18:29:43.681Z,98651.88
2018-10-21T18:32:14.307Z,98649.97
2018-10-21T18:34:45.893Z,98644.05
2018-10-21T18:37:16.691Z,98618.48
2018-10-21T18:39:46.795Z,98652.38
2018-10-21T18:42:17.401Z,98650.80
2018-10-21T18:44:48.067Z,98651.34
2018-10-21T18:47:20.054Z,98654.63
2018-10-21T18:49:50.524Z,98654.92
2018-10-21T18:52:21.804Z,98654.67
2018-10-21T18:54:53.658Z,98647.13
2018-10-21T18:57:23.829Z,98655.22
2018-10-21T18:59:54.651Z,98649.84
2018-10-21T19:02:24.979Z,98655.27
2018-10-21T19:04:54.397Z,98657.44
2018-10-21T19:07:24.916Z,98653.98
2018-10-21T19:09:55.922Z,98657.50
2018-10-21T19:12:26.922Z,98656.73
2018-10-21T19:14:57.437Z,98652.41
2018-10-21T19:17:27.793Z,98650.53
2018-10-21T19:19:58.814Z,98653.26
2018-10-21T19:22:29.231Z,98656.78
2018-10-21T19:25:00.084Z,98655.43
2018-10-21T19:27:30.549Z,98657.84
2018-10-21T19:30:01.816Z,98650.86
2018-10-21T19:32:32.743Z,98656.52
2018-10-21T19:35:03.058Z,98652.73
2018-10-21T19:37:34.163Z,98654.38
2018-10-21T19:40:05.836Z,98659.97
2018-10-21T19:42:36.400Z,98651.61
2018-10-21T19:45:07.851Z,98660.51
2018-10-21T19:47:38.550Z,98659.14
2018-10-21T19:50:10.854Z,98658.89
2018-10-21T19:52:40.158Z,98647.31
2018-10-21T19:55:09.042Z,98661.30
2018-10-21T19:57:39.747Z,98664.54
2018-10-21T20:00:11.604Z,98667.22
2018-10-21T20:02:40.205Z,98675.52
2018-10-21T20:05:09.133Z,98679.30
2018-10-21T20:07:40.326Z,98674.46
2018-10-21T20:10:12.299Z,98681.42
2018-10-21T20:12:41.915Z,98678.44
2018-10-21T20:15:12.462Z,98678.69
2018-10-21T20:17:42.291Z,98680.30
2018-10-21T20:20:14.134Z,98682.13
2018-10-21T20:22:44.507Z,98693.09
2018-10-21T20:25:16.527Z,98693.62
2018-10-21T20:27:47.261Z,98689.58
2018-10-21T20:30:16.484Z,98692.56
2018-10-21T20:32:47.165Z,98686.09
2018-10-21T20:35:16.634Z,98690.39
2018-10-21T20:37:47.630Z,98693.28
2018-10-21T20:40:23.758Z,98697.03
2018-10-21T20:42:54.521Z,98685.42
2018-10-21T20:45:25.223Z,98691.30
2018-10-21T20:47:56.136Z,98696.66
2018-10-21T20:50:27.045Z,98699.82
2018-10-21T20:52:56.355Z,98699.52
2018-10-21T20:55:27.158Z,98696.30
2018-10-21T20:57:57.841Z,98700.31
2018-10-21T21:00:27.976Z,98702.64
2018-10-21T21:02:58.238Z,98699.32
2018-10-21T21:05:27.665Z,98697.37
2018-10-21T21:07:57.410Z,98697.53
2018-10-21T21:10:26.971Z,98702.70
2018-10-21T21:12:58.923Z,98707.23
2018-10-21T21:15:29.498Z,98707.73
2018-10-21T21:18:00.435Z,98711.13
2018-10-21T21:20:32.875Z,98705.76
2018-10-21T21:23:03.910Z,98708.94
2018-10-21T21:25:36.831Z,98711.68
2018-10-21T21:28:08.914Z,98712.19
2018-10-21T21:30:39.143Z,98709.47
2018-10-21T21:33:11.455Z,98707.80
2018-10-21T21:35:41.954Z,98709.67
2018-10-21T21:38:13.453Z,98705.89
2018-10-21T21:40:43.393Z,98714.19
2018-10-21T21:43:15.130Z,98710.86
2018-10-21T21:45:46.175Z,98708.67
2018-10-21T21:48:16.469Z,98707.73
2018-10-21T21:50:45.130Z,98702.21
2018-10-21T21:53:16.172Z,98699.99
2018-10-21T21:55:47.263Z,98697.24
2018-10-21T21:58:17.354Z,98699.42
2018-10-21T22:00:46.912Z,98701.41
2018-10-21T22:03:18.346Z,98704.97
2018-10-21T22:05:48.733Z,98703.55
2018-10-21T22:08:20.873Z,98698.41
2018-10-21T22:10:50.408Z,98696.00
2018-10-21T22:13:20.737Z,98697.94
2018-10-21T22:15:51.159Z,98696.04
2018-10-21T22:18:21.776Z,98701.41
2018-10-21T22:20:53.547Z,98697.66
2018-10-21T22:23:24.316Z,98699.70
2018-10-21T22:25:59.666Z,98693.78
2018-10-21T22:28:30.464Z,98692.13
2018-10-21T22:31:01.180Z,98689.97
2018-10-21T22:33:32.137Z,98690.49
2018-10-21T22:36:03.147Z,98694.61
2018-10-21T22:38:35.224Z,98691.52
2018-10-21T22:41:06.163Z,98693.99
2018-10-21T22:43:36.752Z,98691.52
2018-10-21T22:46:07.420Z,98690.67
2018-10-21T22:48:39.138Z,98687.67
2018-10-21T22:51:10.489Z,98687.30
2018-10-21T22:53:41.257Z,98686.73
2018-10-21T22:56:11.360Z,98687.98
2018-10-21T22:58:44.360Z,98680.28
2018-10-21T23:01:14.696Z,98681.09
2018-10-21T23:03:44.922Z,98677.89
2018-10-21T23:06:15.594Z,98669.69
2018-10-21T23:08:46.773Z,98670.91
2018-10-21T23:11:16.650Z,98676.60
2018-10-21T23:13:45.613Z,98674.94
2018-10-21T23:16:15.289Z,98677.99
2018-10-21T23:18:45.728Z,98678.27
2018-10-21T23:21:14.774Z,98672.84
2018-10-21T23:23:43.987Z,98676.66
2018-10-21T23:26:13.117Z,98670.01
2018-10-21T23:28:43.203Z,98674.84
2018-10-21T23:31:12.633Z,98669.83
2018-10-21T23:33:41.829Z,98670.55
2018-10-21T23:36:11.555Z,98669.73
2018-10-21T23:38:43.275Z,98668.54
2018-10-21T23:41:13.091Z,98663.62
2018-10-21T23:43:42.680Z,98660.42
2018-10-21T23:46:12.415Z,98664.10
2018-10-21T23:48:42.578Z,98665.67
2018-10-21T23:51:13.405Z,98669.34
2018-10-21T23:53:44.867Z,98663.55
2018-10-21T23:56:15.188Z,98664.70
2018-10-21T23:58:46.683Z,98661.78
